createdAt,value
2023-03-02T00:02:18.303Z,57.55
2023-03-02T00:04:56.767Z,58.53
2023-03-02T00:07:35.077Z,55.22
2023-03-02T00:10:07.778Z,54.78
2023-03-02T00:12:39.651Z,54.30
2023-03-02T00:15:14.297Z,54.67
2023-03-02T00:17:46.360Z,51.53
2023-03-02T00:20:18.152Z,53.55
2023-03-02T00:22:49.987Z,54.65
2023-03-02T00:25:21.771Z,51.45
2023-03-02T00:27:57.602Z,54.15
2023-03-02T00:30:33.518Z,54.58
2023-03-02T00:35:41.159Z,54.47
2023-03-02T00:38:13.810Z,52.25
2023-03-02T00:40:46.972Z,49.13
2023-03-02T00:43:27.276Z,54.15
2023-03-02T00:45:59.123Z,52.20
2023-03-02T00:48:30.885Z,54.53
2023-03-02T00:51:02.639Z,51.75
2023-03-02T00:53:36.345Z,52.75
2023-03-02T00:56:09.723Z,57.40
2023-03-02T00:58:45.485Z,52.65
2023-03-02T01:01:18.748Z,58.28
2023-03-02T01:03:55.213Z,60.47
2023-03-02T01:06:27.174Z,57.85
2023-03-02T01:08:58.908Z,56.47
2023-03-02T01:11:30.743Z,58.65
2023-03-02T01:14:02.442Z,51.60
2023-03-02T01:16:36.636Z,54.80
2023-03-02T01:19:08.592Z,55.97
2023-03-02T01:21:41.685Z,51.47
2023-03-02T01:24:16.107Z,59.58
2023-03-02T01:26:47.922Z,54.20
2023-03-02T01:29:22.722Z,54.22
2023-03-02T01:34:26.592Z,51.92
2023-03-02T01:37:01.403Z,52.53
2023-03-02T01:39:35.296Z,59.78
2023-03-02T01:42:07.008Z,50.03
2023-03-02T01:44:46.341Z,50.53
2023-03-02T01:47:24.437Z,52.92
2023-03-02T01:50:26.424Z,56.97
2023-03-02T01:53:05.665Z,53.78
2023-03-02T01:55:41.328Z,53.38
2023-03-02T01:58:18.266Z,54.83
2023-03-02T02:00:54.896Z,58.30
2023-03-02T02:03:30.568Z,57.15
2023-03-02T02:06:18.147Z,53.67
2023-03-02T02:08:52.707Z,53.60
2023-03-02T02:11:26.021Z,58.92
2023-03-02T02:14:00.230Z,56.03
2023-03-02T02:16:34.210Z,54.10
2023-03-02T02:19:36.744Z,53.85
2023-03-02T02:22:10.724Z,54.10
2023-03-02T02:24:49.744Z,60.33
2023-03-02T02:27:22.617Z,55.00
2023-03-02T02:29:55.629Z,58.42
2023-03-02T02:32:31.633Z,54.63
2023-03-02T02:35:29.831Z,56.08
2023-03-02T02:38:05.671Z,57.33
2023-03-02T02:40:37.360Z,59.40
2023-03-02T02:43:15.202Z,58.20
2023-03-02T02:45:49.116Z,56.97
2023-03-02T02:48:24.266Z,58.23
2023-03-02T02:51:00.565Z,61.20
2023-03-02T02:53:58.648Z,55.90
2023-03-02T02:56:38.283Z,57.83
2023-03-02T02:59:24.124Z,56.10
2023-03-02T03:01:57.001Z,59.00
2023-03-02T03:04:33.858Z,55.80
2023-03-02T03:07:06.775Z,61.13
2023-03-02T03:09:40.174Z,58.53
2023-03-02T03:12:19.679Z,58.75
2023-03-02T03:14:53.011Z,59.08
2023-03-02T03:17:25.318Z,59.85
2023-03-02T03:20:10.830Z,56.42
2023-03-02T03:22:53.488Z,62.08
2023-03-02T03:25:27.715Z,55.70
2023-03-02T03:28:02.912Z,62.47
2023-03-02T03:30:35.050Z,54.58
2023-03-02T03:33:11.110Z,56.97
2023-03-02T03:35:44.416Z,57.38
2023-03-02T03:38:19.522Z,57.33
2023-03-02T03:40:52.399Z,57.42
2023-03-02T03:43:24.319Z,56.85
2023-03-02T03:45:58.793Z,52.00
2023-03-02T03:48:33.483Z,54.55
2023-03-02T03:51:12.846Z,62.03
2023-03-02T03:53:45.578Z,56.25
2023-03-02T03:56:17.882Z,60.47
2023-03-02T03:59:01.963Z,55.47
2023-03-02T04:01:47.427Z,56.92
2023-03-02T04:04:30.883Z,54.25
2023-03-02T04:07:05.870Z,59.53
2023-03-02T04:09:39.222Z,60.25
2023-03-02T04:12:14.010Z,58.65
2023-03-02T04:14:53.122Z,58.85
2023-03-02T04:17:24.937Z,55.65
2023-03-02T04:19:56.764Z,56.03
2023-03-02T04:22:28.578Z,57.38
2023-03-02T04:25:01.227Z,54.65
2023-03-02T04:27:34.031Z,54.03
2023-03-02T04:30:08.443Z,56.95
2023-03-02T04:32:40.530Z,56.60
2023-03-02T04:35:13.126Z,57.40
2023-03-02T04:37:48.404Z,55.88
2023-03-02T04:40:21.525Z,57.22
2023-03-02T04:42:58.767Z,54.67
2023-03-02T04:45:30.529Z,57.42
2023-03-02T04:48:05.546Z,60.63
2023-03-02T04:50:38.524Z,54.20
2023-03-02T04:53:12.082Z,54.20
2023-03-02T04:55:46.376Z,55.20
2023-03-02T04:58:18.194Z,53.17
2023-03-02T05:00:49.996Z,58.08
2023-03-02T05:03:21.712Z,53.47
2023-03-02T05:05:53.612Z,55.05
2023-03-02T05:08:28.140Z,54.47
2023-03-02T05:11:01.505Z,59.30
2023-03-02T05:13:34.293Z,57.63
2023-03-02T05:16:06.387Z,61.17
2023-03-02T05:18:39.284Z,59.20
2023-03-02T05:21:17.772Z,63.33
2023-03-02T05:23:49.547Z,63.55
2023-03-02T05:26:21.472Z,65.38
2023-03-02T05:28:54.150Z,62.10
2023-03-02T05:31:39.028Z,62.28
2023-03-02T05:34:21.137Z,62.70
2023-03-02T05:36:57.188Z,63.88
2023-03-02T05:39:28.954Z,58.45
2023-03-02T05:42:01.029Z,60.95
2023-03-02T05:44:32.955Z,58.03
2023-03-02T05:47:04.966Z,60.03
2023-03-02T05:49:39.478Z,60.28
2023-03-02T05:52:11.213Z,69.15
2023-03-02T05:54:42.940Z,66.13
2023-03-02T05:57:14.964Z,69.20
2023-03-02T05:59:47.792Z,71.13
2023-03-02T06:02:19.724Z,64.38
2023-03-02T06:04:54.028Z,62.60
2023-03-02T06:07:27.427Z,65.03
2023-03-02T06:09:59.162Z,60.50
2023-03-02T06:12:31.007Z,63.15
2023-03-02T06:15:04.888Z,66.30
2023-03-02T06:17:38.213Z,61.47
2023-03-02T06:20:15.778Z,61.05
2023-03-02T06:22:47.817Z,53.03
2023-03-02T06:25:24.199Z,56.33
2023-03-02T06:27:55.947Z,58.17
2023-03-02T06:30:28.690Z,59.25
2023-03-02T06:33:03.375Z,59.10
2023-03-02T06:35:35.295Z,60.63
2023-03-02T06:38:07.127Z,56.70
2023-03-02T06:40:41.922Z,53.22
2023-03-02T06:45:48.352Z,53.25
2023-03-02T06:48:24.463Z,49.78
2023-03-02T06:50:56.197Z,47.83
2023-03-02T06:53:31.629Z,51.40
2023-03-02T06:56:03.564Z,46.83
2023-03-02T06:58:38.442Z,45.35
2023-03-02T07:01:10.299Z,47.65
2023-03-02T07:03:43.361Z,47.75
2023-03-02T07:06:15.242Z,45.97
2023-03-02T07:08:47.076Z,45.40
2023-03-02T07:11:19.976Z,45.00
2023-03-02T07:13:54.495Z,43.28
2023-03-02T07:18:58.033Z,45.45
2023-03-02T07:21:34.161Z,42.25
2023-03-02T07:24:08.993Z,45.35
2023-03-02T07:26:40.724Z,44.90
2023-03-02T07:29:12.499Z,46.45
2023-03-02T07:31:44.437Z,43.05
2023-03-02T07:34:16.479Z,39.75
2023-03-02T07:36:49.608Z,44.80
2023-03-02T07:39:22.351Z,41.67
2023-03-02T07:41:58.195Z,45.78
2023-03-02T07:44:31.065Z,41.88
2023-03-02T07:47:04.760Z,41.65
2023-03-02T07:49:37.149Z,41.47
2023-03-02T07:52:08.883Z,41.63
2023-03-02T07:54:40.680Z,46.35
2023-03-02T07:57:16.080Z,42.28
2023-03-02T07:59:50.797Z,44.70
2023-03-02T08:02:22.606Z,41.90
2023-03-02T08:04:54.511Z,43.80
2023-03-02T08:07:27.632Z,47.30
2023-03-02T08:10:00.983Z,43.65
2023-03-02T08:12:32.851Z,43.65
2023-03-02T08:15:05.236Z,49.15
2023-03-02T08:17:37.158Z,45.42
2023-03-02T08:20:09.639Z,44.92
2023-03-02T08:22:41.350Z,43.38
2023-03-02T08:25:16.153Z,45.55
2023-03-02T08:27:48.129Z,46.78
2023-03-02T08:30:21.250Z,43.28
2023-03-02T08:32:53.005Z,41.53
2023-03-02T08:35:24.895Z,41.25
2023-03-02T08:37:56.656Z,44.55
2023-03-02T08:40:28.379Z,43.40
2023-03-02T08:43:00.366Z,46.28
2023-03-02T08:48:06.717Z,40.13
2023-03-02T08:50:38.546Z,41.42
2023-03-02T08:53:12.236Z,45.45
2023-03-02T08:55:44.015Z,39.58
2023-03-02T08:58:15.751Z,42.47
2023-03-02T09:00:47.664Z,42.50
2023-03-02T09:03:19.990Z,43.75
2023-03-02T09:05:54.950Z,38.88
2023-03-02T09:08:26.645Z,39.15
2023-03-02T09:11:00.676Z,41.63
2023-03-02T09:13:32.759Z,42.70
2023-03-02T09:16:05.644Z,40.60
2023-03-02T09:18:37.905Z,42.22
2023-03-02T09:21:12.922Z,40.83
2023-03-02T09:23:44.940Z,41.25
2023-03-02T09:26:16.841Z,41.72
2023-03-02T09:28:48.732Z,40.15
2023-03-02T09:31:20.689Z,40.30
2023-03-02T09:33:52.504Z,41.45
2023-03-02T09:36:26.071Z,36.42
2023-03-02T09:38:58.025Z,41.92
2023-03-02T09:41:41.572Z,41.65
2023-03-02T09:44:42.565Z,39.65
2023-03-02T09:47:34.594Z,39.38
2023-03-02T09:50:12.829Z,43.83
2023-03-02T09:52:49.074Z,42.28
2023-03-02T09:55:28.829Z,39.78
2023-03-02T09:58:02.973Z,36.35
2023-03-02T10:00:42.516Z,38.25
2023-03-02T10:03:39.070Z,36.28
2023-03-02T10:06:11.371Z,36.97
2023-03-02T10:08:44.950Z,38.17
2023-03-02T10:11:44.156Z,38.10
2023-03-02T10:14:31.415Z,35.83
2023-03-02T10:17:28.916Z,37.85
2023-03-02T10:20:05.028Z,40.75
2023-03-02T10:22:49.410Z,41.92
2023-03-02T10:25:42.760Z,38.65
2023-03-02T10:28:20.877Z,40.47
2023-03-02T10:31:05.455Z,38.92
2023-03-02T10:33:40.585Z,39.63
2023-03-02T10:36:23.940Z,37.50
2023-03-02T10:38:58.029Z,38.17
2023-03-02T10:41:47.207Z,40.60
2023-03-02T10:44:38.277Z,38.05
2023-03-02T10:47:23.616Z,41.42
2023-03-02T10:50:00.268Z,40.65
2023-03-02T10:52:32.809Z,36.38
2023-03-02T10:55:14.993Z,42.83
2023-03-02T10:57:59.235Z,44.65
2023-03-02T11:00:32.758Z,37.40
2023-03-02T11:03:20.470Z,37.15
2023-03-02T11:05:56.072Z,35.13
2023-03-02T11:08:28.888Z,37.30
2023-03-02T11:11:04.319Z,36.70
2023-03-02T11:13:39.664Z,34.97
2023-03-02T11:16:29.416Z,34.10
2023-03-02T11:19:08.494Z,37.20
2023-03-02T11:22:14.535Z,38.17
2023-03-02T11:24:54.016Z,36.03
2023-03-02T11:27:36.385Z,36.97
2023-03-02T11:30:22.772Z,35.08
2023-03-02T11:33:02.614Z,40.33
2023-03-02T11:35:43.502Z,36.78
2023-03-02T11:38:32.632Z,33.67
2023-03-02T11:41:14.496Z,34.42
2023-03-02T11:43:46.188Z,29.42
2023-03-02T11:46:26.532Z,30.55
2023-03-02T11:49:10.065Z,29.15
2023-03-02T11:51:58.600Z,35.55
2023-03-02T11:54:57.614Z,30.85
2023-03-02T11:57:34.240Z,33.38
2023-03-02T12:00:15.436Z,31.70
2023-03-02T12:02:59.079Z,33.33
2023-03-02T12:05:35.738Z,31.98
2023-03-02T12:08:19.718Z,32.40
2023-03-02T12:10:59.655Z,30.23
2023-03-02T12:13:43.864Z,28.33
2023-03-02T12:16:21.701Z,34.72
2023-03-02T12:18:54.188Z,32.38
2023-03-02T12:21:27.071Z,32.53
2023-03-02T12:24:04.079Z,31.23
2023-03-02T12:26:37.878Z,33.17
2023-03-02T12:29:13.617Z,31.33
2023-03-02T12:31:46.998Z,28.23
2023-03-02T12:34:35.810Z,31.10
2023-03-02T12:37:19.207Z,41.13
2023-03-02T12:40:11.498Z,32.03
2023-03-02T12:42:58.598Z,30.83
2023-03-02T12:45:45.464Z,30.42
2023-03-02T12:48:32.190Z,33.08
2023-03-02T12:51:05.222Z,32.13
2023-03-02T12:53:37.491Z,31.35
2023-03-02T12:56:22.389Z,29.00
2023-03-02T12:58:54.755Z,30.45
2023-03-02T13:01:29.839Z,32.65
2023-03-02T13:04:01.641Z,30.88
2023-03-02T13:06:39.031Z,33.47
2023-03-02T13:09:14.946Z,31.95
2023-03-02T13:11:49.973Z,29.05
2023-03-02T13:14:53.304Z,27.13
2023-03-02T13:17:31.250Z,31.08
2023-03-02T13:20:04.839Z,27.67
2023-03-02T13:22:36.954Z,30.75
2023-03-02T13:25:22.657Z,29.70
2023-03-02T13:28:07.624Z,26.38
2023-03-02T13:33:24.619Z,30.13
2023-03-02T13:35:57.278Z,27.73
2023-03-02T13:38:38.578Z,26.80
2023-03-02T13:41:25.287Z,24.40
2023-03-02T13:44:00.808Z,27.67
2023-03-02T13:46:36.647Z,28.48
2023-03-02T13:49:12.008Z,28.13
2023-03-02T13:51:47.269Z,25.92
2023-03-02T13:54:25.538Z,28.27
2023-03-02T13:57:00.693Z,30.90
2023-03-02T13:59:38.781Z,27.08
2023-03-02T14:02:25.684Z,26.52
2023-03-02T14:04:58.742Z,23.83
2023-03-02T14:07:30.573Z,29.48
2023-03-02T14:10:02.328Z,21.50
2023-03-02T14:12:40.308Z,23.58
2023-03-02T14:15:16.614Z,22.88
2023-03-02T14:17:49.319Z,24.48
2023-03-02T14:20:25.011Z,26.75
2023-03-02T14:22:56.734Z,25.17
2023-03-02T14:25:28.475Z,22.48
2023-03-02T14:28:03.578Z,30.10
2023-03-02T14:30:35.342Z,20.25
2023-03-02T14:33:15.955Z,25.10
2023-03-02T14:35:49.668Z,23.50
2023-03-02T14:38:28.396Z,25.60
2023-03-02T14:41:00.581Z,21.90
2023-03-02T14:43:36.534Z,25.23
2023-03-02T14:46:08.573Z,21.33
2023-03-02T14:48:41.724Z,21.60
2023-03-02T14:51:26.292Z,22.65
2023-03-02T14:54:04.455Z,22.63
2023-03-02T14:56:37.620Z,21.45
2023-03-02T14:59:14.016Z,20.75
2023-03-02T15:01:45.799Z,20.08
2023-03-02T15:04:17.614Z,23.83
2023-03-02T15:06:49.338Z,24.42
2023-03-02T15:09:21.062Z,21.80
2023-03-02T15:11:52.799Z,19.95
2023-03-02T15:14:24.617Z,22.05
2023-03-02T15:17:00.288Z,21.23
2023-03-02T15:19:33.217Z,20.10
2023-03-02T15:22:06.089Z,23.40
2023-03-02T15:24:37.809Z,19.63
2023-03-02T15:27:09.576Z,18.60
2023-03-02T15:29:45.939Z,20.73
2023-03-02T15:32:18.042Z,16.92
2023-03-02T15:34:49.897Z,19.48
2023-03-02T15:37:22.158Z,20.10
2023-03-02T15:39:55.367Z,17.67
2023-03-02T15:42:27.199Z,19.92
2023-03-02T15:44:59.590Z,18.63
2023-03-02T15:47:34.816Z,18.27
2023-03-02T15:50:06.954Z,22.90
2023-03-02T15:52:38.745Z,19.88
2023-03-02T15:55:17.342Z,18.55
2023-03-02T15:57:51.502Z,20.60
2023-03-02T16:00:23.770Z,21.00
2023-03-02T16:02:55.518Z,20.10
2023-03-02T16:05:27.286Z,19.00
2023-03-02T16:07:59.038Z,18.23
2023-03-02T16:10:32.044Z,18.95
2023-03-02T16:13:05.678Z,18.67
2023-03-02T16:15:42.044Z,20.63
2023-03-02T16:18:14.423Z,20.65
2023-03-02T16:20:46.150Z,21.33
2023-03-02T16:23:18.124Z,17.80
2023-03-02T16:25:51.489Z,21.38
2023-03-02T16:28:23.263Z,20.27
2023-03-02T16:31:03.691Z,21.42
2023-03-02T16:33:36.085Z,18.50
2023-03-02T16:36:09.115Z,16.65
2023-03-02T16:38:41.031Z,18.38
2023-03-02T16:41:16.930Z,19.80
2023-03-02T16:43:51.586Z,19.95
2023-03-02T16:46:25.844Z,20.25
2023-03-02T16:48:58.654Z,19.63
2023-03-02T16:51:30.640Z,21.48
2023-03-02T16:54:02.964Z,22.70
2023-03-02T16:56:34.814Z,18.67
2023-03-02T16:59:06.967Z,18.30
2023-03-02T17:01:38.845Z,18.58
2023-03-02T17:04:11.686Z,24.70
2023-03-02T17:06:59.781Z,20.10
2023-03-02T17:09:34.954Z,24.90
2023-03-02T17:14:40.094Z,20.88
2023-03-02T17:17:11.852Z,20.77
2023-03-02T17:19:44.001Z,22.75
2023-03-02T17:22:18.507Z,21.40
2023-03-02T17:24:50.628Z,19.35
2023-03-02T17:27:25.979Z,23.63
2023-03-02T17:29:57.861Z,23.30
2023-03-02T17:32:29.699Z,23.77
2023-03-02T17:35:10.475Z,25.20
2023-03-02T17:37:45.759Z,23.77
2023-03-02T17:40:18.674Z,29.02
2023-03-02T17:42:56.189Z,26.92
2023-03-02T17:45:34.173Z,24.38
2023-03-02T17:48:06.290Z,26.05
2023-03-02T17:50:38.067Z,27.15
2023-03-02T17:53:12.573Z,20.55
2023-03-02T17:55:44.403Z,23.15
2023-03-02T17:58:16.537Z,32.22
2023-03-02T18:00:48.241Z,25.80
2023-03-02T18:03:20.217Z,25.88
2023-03-02T18:05:52.036Z,26.30
2023-03-02T18:08:24.234Z,22.30
2023-03-02T18:10:58.745Z,30.77
2023-03-02T18:13:31.466Z,27.35
2023-03-02T18:16:06.990Z,27.50
2023-03-02T18:18:38.894Z,26.73
2023-03-02T18:21:10.674Z,27.95
2023-03-02T18:23:44.809Z,28.27
2023-03-02T18:26:17.105Z,35.13
2023-03-02T18:28:48.809Z,28.58
2023-03-02T18:31:23.899Z,27.58
2023-03-02T18:33:55.763Z,26.25
2023-03-02T18:36:27.825Z,25.25
2023-03-02T18:39:03.959Z,29.13
2023-03-02T18:41:35.664Z,23.33
2023-03-02T18:44:07.496Z,26.55
2023-03-02T18:46:39.365Z,27.27
2023-03-02T18:49:11.107Z,25.45
2023-03-02T18:51:43.332Z,24.95
2023-03-02T18:54:18.190Z,29.30
2023-03-02T18:56:52.066Z,29.65
2023-03-02T18:59:23.880Z,24.05
2023-03-02T19:01:55.945Z,25.85
2023-03-02T19:04:27.829Z,28.83
2023-03-02T19:07:00.819Z,30.77
2023-03-02T19:09:34.982Z,32.70
2023-03-02T19:12:09.431Z,28.35
2023-03-02T19:14:45.883Z,27.10
2023-03-02T19:17:18.636Z,35.65
2023-03-02T19:19:50.360Z,32.92
2023-03-02T19:22:22.099Z,32.90
2023-03-02T19:24:53.824Z,29.85
2023-03-02T19:27:26.957Z,33.22
2023-03-02T19:29:58.689Z,35.13
2023-03-02T19:32:30.601Z,37.53
2023-03-02T19:35:03.991Z,44.72
2023-03-02T19:37:35.688Z,34.50
2023-03-02T19:40:09.429Z,35.10
2023-03-02T19:42:41.844Z,35.17
2023-03-02T19:45:19.477Z,37.90
2023-03-02T19:47:51.531Z,39.53
2023-03-02T19:50:24.214Z,31.90
2023-03-02T19:52:58.372Z,31.10
2023-03-02T19:55:30.111Z,31.73
2023-03-02T19:58:02.524Z,46.08
2023-03-02T20:00:35.384Z,45.25
2023-03-02T20:03:09.813Z,46.65
2023-03-02T20:05:41.530Z,43.08
2023-03-02T20:08:13.289Z,42.50
2023-03-02T20:10:49.598Z,40.33
2023-03-02T20:13:21.590Z,44.63
2023-03-02T20:15:53.687Z,44.55
2023-03-02T20:18:26.903Z,43.95
2023-03-02T20:21:02.249Z,40.42
2023-03-02T20:23:34.548Z,44.65
2023-03-02T20:26:06.560Z,40.53
2023-03-02T20:28:38.473Z,42.38
2023-03-02T20:31:12.667Z,41.40
2023-03-02T20:33:50.459Z,46.00
2023-03-02T20:36:28.074Z,41.97
2023-03-02T20:39:15.192Z,46.00
2023-03-02T20:41:50.009Z,43.60
2023-03-02T20:44:23.516Z,48.58
2023-03-02T20:46:58.157Z,45.47
2023-03-02T20:49:34.334Z,48.60
2023-03-02T20:52:10.292Z,46.22
2023-03-02T20:54:43.617Z,47.58
2023-03-02T20:57:18.313Z,51.28
2023-03-02T20:59:50.337Z,47.15
2023-03-02T21:02:23.472Z,46.58
2023-03-02T21:04:55.386Z,43.17
2023-03-02T21:07:27.285Z,47.80
2023-03-02T21:09:59.002Z,47.40
2023-03-02T21:12:33.197Z,42.58
2023-03-02T21:15:05.839Z,44.22
2023-03-02T21:17:39.308Z,47.88
2023-03-02T21:20:16.029Z,50.30
2023-03-02T21:22:49.625Z,48.10
2023-03-02T21:25:23.701Z,55.80
2023-03-02T21:27:56.600Z,48.63
2023-03-02T21:30:34.005Z,47.80
2023-03-02T21:33:09.970Z,42.88
2023-03-02T21:35:41.813Z,43.25
2023-03-02T21:38:14.716Z,42.05
2023-03-02T21:40:48.756Z,48.72
2023-03-02T21:43:20.633Z,48.63
2023-03-02T21:45:52.394Z,48.80
2023-03-02T21:48:28.216Z,49.10
2023-03-02T21:50:59.939Z,47.70
2023-03-02T21:53:31.776Z,45.30
2023-03-02T21:56:03.722Z,43.88
2023-03-02T21:58:36.035Z,43.85
2023-03-02T22:01:08.907Z,46.20
2023-03-02T22:03:43.416Z,45.17
2023-03-02T22:06:23.277Z,46.55
2023-03-02T22:08:55.868Z,46.33
2023-03-02T22:11:35.467Z,48.78
2023-03-02T22:14:17.805Z,47.30
2023-03-02T22:16:52.071Z,46.90
2023-03-02T22:19:31.220Z,45.05
2023-03-02T22:22:03.345Z,50.03
2023-03-02T22:24:36.336Z,46.80
2023-03-02T22:27:26.885Z,46.42
2023-03-02T22:30:00.102Z,54.67
2023-03-02T22:32:37.237Z,50.17
2023-03-02T22:35:27.618Z,53.03
2023-03-02T22:38:11.781Z,50.05
2023-03-02T22:40:46.368Z,54.72
2023-03-02T22:43:29.912Z,51.28
2023-03-02T22:46:21.664Z,52.25
2023-03-02T22:48:54.454Z,50.53
2023-03-02T22:51:30.954Z,51.75
2023-03-02T22:54:20.006Z,51.70
2023-03-02T22:56:53.456Z,50.70
2023-03-02T22:59:36.327Z,48.47
2023-03-02T23:02:18.224Z,53.92
2023-03-02T23:04:50.458Z,47.80
2023-03-02T23:07:22.425Z,55.03
2023-03-02T23:09:54.390Z,55.85
2023-03-02T23:12:29.204Z,57.05
2023-03-02T23:17:39.832Z,54.15
2023-03-02T23:20:14.661Z,57.22
2023-03-02T23:22:46.454Z,53.05
2023-03-02T23:25:21.865Z,49.33
2023-03-02T23:27:53.608Z,49.97
2023-03-02T23:30:25.404Z,45.53
2023-03-02T23:32:57.177Z,53.33
2023-03-02T23:35:29.439Z,48.35
2023-03-02T23:38:01.495Z,55.65
2023-03-02T23:40:33.868Z,57.13
2023-03-02T23:43:05.843Z,54.55
2023-03-02T23:45:39.166Z,52.05
2023-03-02T23:48:11.119Z,47.78
2023-03-02T23:50:43.368Z,51.15
2023-03-02T23:53:15.099Z,49.63
2023-03-02T23:55:54.763Z,49.67
2023-03-02T23:58:26.494Z,53.55
